sensor_id;sensor_type;location;lat;lon;timestamp;pressure;altitude;pressure_sealevel;temperature;humidity
28289;BME280;15558;50.874;6.964;2022-10-16T00:00:56;100753.09;;;19.04;70.35
28289;BME280;15558;50.874;6.964;2022-10-16T00:03:22;100759.94;;;19.03;69.81
28289;BME280;15558;50.874;6.964;2022-10-16T00:05:48;100765.66;;;19.15;70.00
28289;BME280;15558;50.874;6.964;2022-10-16T00:08:14;100762.09;;;19.06;70.31
28289;BME280;15558;50.874;6.964;2022-10-16T00:10:40;100746.66;;;19.07;70.18
28289;BME280;15558;50.874;6.964;2022-10-16T00:13:06;100758.53;;;19.21;68.97
28289;BME280;15558;50.874;6.964;2022-10-16T00:15:35;100757.47;;;19.13;69.70
28289;BME280;15558;50.874;6.964;2022-10-16T00:18:04;100749.88;;;19.05;70.21
28289;BME280;15558;50.874;6.964;2022-10-16T00:20:30;100747.63;;;19.11;69.75
28289;BME280;15558;50.874;6.964;2022-10-16T00:22:58;100758.31;;;19.14;69.70
28289;BME280;15558;50.874;6.964;2022-10-16T00:25:24;100765.19;;;19.13;70.18
28289;BME280;15558;50.874;6.964;2022-10-16T00:27:50;100771.94;;;19.08;69.59
28289;BME280;15558;50.874;6.964;2022-10-16T00:30:16;100774.31;;;19.06;70.15
28289;BME280;15558;50.874;6.964;2022-10-16T00:32:41;100769.56;;;19.10;70.47
28289;BME280;15558;50.874;6.964;2022-10-16T00:35:07;100766.13;;;19.05;70.22
28289;BME280;15558;50.874;6.964;2022-10-16T00:37:33;100775.25;;;18.98;70.49
28289;BME280;15558;50.874;6.964;2022-10-16T00:39:58;100769.41;;;18.95;70.85
28289;BME280;15558;50.874;6.964;2022-10-16T00:42:24;100752.59;;;19.02;70.56
28289;BME280;15558;50.874;6.964;2022-10-16T00:44:51;100749.97;;;18.97;70.56
28289;BME280;15558;50.874;6.964;2022-10-16T00:49:51;100764.28;;;18.89;70.66
28289;BME280;15558;50.874;6.964;2022-10-16T00:52:18;100758.84;;;18.84;71.06
28289;BME280;15558;50.874;6.964;2022-10-16T00:54:44;100770.06;;;18.80;70.96
28289;BME280;15558;50.874;6.964;2022-10-16T00:57:11;100769.72;;;18.82;71.07
28289;BME280;15558;50.874;6.964;2022-10-16T00:59:38;100758.66;;;19.00;70.23
28289;BME280;15558;50.874;6.964;2022-10-16T01:02:05;100767.72;;;18.82;70.80
28289;BME280;15558;50.874;6.964;2022-10-16T01:04:35;100759.44;;;18.77;71.20
28289;BME280;15558;50.874;6.964;2022-10-16T01:14:57;100757.03;;;18.67;71.28
28289;BME280;15558;50.874;6.964;2022-10-16T01:17:28;100769.59;;;18.66;70.97
28289;BME280;15558;50.874;6.964;2022-10-16T01:25:21;100773.13;;;18.63;70.94
28289;BME280;15558;50.874;6.964;2022-10-16T01:27:50;100780.44;;;18.53;71.18
28289;BME280;15558;50.874;6.964;2022-10-16T01:30:18;100779.97;;;18.51;71.21
28289;BME280;15558;50.874;6.964;2022-10-16T01:32:49;100759.44;;;18.45;71.10
28289;BME280;15558;50.874;6.964;2022-10-16T01:37:48;100765.03;;;18.42;71.43
28289;BME280;15558;50.874;6.964;2022-10-16T01:40:15;100775.19;;;18.43;71.39
28289;BME280;15558;50.874;6.964;2022-10-16T01:42:42;100781.84;;;18.47;71.34
28289;BME280;15558;50.874;6.964;2022-10-16T01:45:10;100783.00;;;18.34;71.75
28289;BME280;15558;50.874;6.964;2022-10-16T01:47:38;100794.38;;;18.34;71.53
28289;BME280;15558;50.874;6.964;2022-10-16T01:50:05;100784.06;;;18.29;71.55
28289;BME280;15558;50.874;6.964;2022-10-16T01:52:32;100780.16;;;18.34;71.44
28289;BME280;15558;50.874;6.964;2022-10-16T01:54:59;100787.16;;;18.36;71.45
28289;BME280;15558;50.874;6.964;2022-10-16T01:57:26;100783.22;;;18.29;71.62
28289;BME280;15558;50.874;6.964;2022-10-16T01:59:53;100787.94;;;18.25;71.50
28289;BME280;15558;50.874;6.964;2022-10-16T02:02:20;100783.75;;;18.23;71.80
28289;BME280;15558;50.874;6.964;2022-10-16T02:04:55;100777.59;;;18.21;71.94
28289;BME280;15558;50.874;6.964;2022-10-16T02:07:23;100788.50;;;18.19;72.28
28289;BME280;15558;50.874;6.964;2022-10-16T02:09:49;100792.84;;;18.16;72.30
28289;BME280;15558;50.874;6.964;2022-10-16T02:12:16;100796.66;;;18.20;72.63
28289;BME280;15558;50.874;6.964;2022-10-16T02:14:44;100794.38;;;18.14;72.64
28289;BME280;15558;50.874;6.964;2022-10-16T02:17:12;100794.66;;;18.21;72.61
28289;BME280;15558;50.874;6.964;2022-10-16T02:19:37;100794.44;;;18.26;72.66
28289;BME280;15558;50.874;6.964;2022-10-16T02:22:03;100802.16;;;18.25;72.61
28289;BME280;15558;50.874;6.964;2022-10-16T02:29:30;100786.31;;;18.36;70.46
28289;BME280;15558;50.874;6.964;2022-10-16T02:32:01;100787.78;;;18.42;70.96
28289;BME280;15558;50.874;6.964;2022-10-16T02:34:27;100794.81;;;18.56;70.18
28289;BME280;15558;50.874;6.964;2022-10-16T02:36:55;100788.72;;;18.46;70.46
28289;BME280;15558;50.874;6.964;2022-10-16T02:39:22;100803.09;;;18.61;68.98
28289;BME280;15558;50.874;6.964;2022-10-16T02:41:48;100798.69;;;18.52;70.21
28289;BME280;15558;50.874;6.964;2022-10-16T02:44:14;100806.88;;;18.53;70.38
28289;BME280;15558;50.874;6.964;2022-10-16T02:46:40;100799.25;;;18.45;70.43
28289;BME280;15558;50.874;6.964;2022-10-16T02:49:05;100800.25;;;18.61;68.82
28289;BME280;15558;50.874;6.964;2022-10-16T02:51:31;100793.09;;;18.43;69.59
28289;BME280;15558;50.874;6.964;2022-10-16T02:53:57;100796.13;;;18.59;68.97
28289;BME280;15558;50.874;6.964;2022-10-16T02:56:23;100808.81;;;18.41;69.10
28289;BME280;15558;50.874;6.964;2022-10-16T02:58:49;100814.56;;;18.53;68.91
28289;BME280;15558;50.874;6.964;2022-10-16T03:01:15;100808.25;;;18.47;69.64
28289;BME280;15558;50.874;6.964;2022-10-16T03:03:42;100795.09;;;18.43;69.72
28289;BME280;15558;50.874;6.964;2022-10-16T03:06:08;100802.31;;;18.40;70.26
28289;BME280;15558;50.874;6.964;2022-10-16T03:08:34;100810.03;;;18.40;70.27
28289;BME280;15558;50.874;6.964;2022-10-16T03:10:59;100796.72;;;18.32;70.79
28289;BME280;15558;50.874;6.964;2022-10-16T03:13:25;100790.56;;;18.30;70.82
28289;BME280;15558;50.874;6.964;2022-10-16T03:15:51;100800.47;;;18.24;71.06
28289;BME280;15558;50.874;6.964;2022-10-16T03:18:17;100796.28;;;18.42;69.81
28289;BME280;15558;50.874;6.964;2022-10-16T03:20:43;100788.53;;;18.30;70.64
28289;BME280;15558;50.874;6.964;2022-10-16T03:23:08;100780.38;;;18.29;71.01
28289;BME280;15558;50.874;6.964;2022-10-16T03:25:34;100784.38;;;18.28;71.01
28289;BME280;15558;50.874;6.964;2022-10-16T03:28:00;100799.31;;;18.25;71.36
28289;BME280;15558;50.874;6.964;2022-10-16T03:30:26;100804.50;;;18.23;71.41
28289;BME280;15558;50.874;6.964;2022-10-16T03:32:51;100794.09;;;18.27;71.14
28289;BME280;15558;50.874;6.964;2022-10-16T03:35:19;100786.00;;;18.17;71.36
28289;BME280;15558;50.874;6.964;2022-10-16T03:37:45;100794.69;;;18.32;70.88
28289;BME280;15558;50.874;6.964;2022-10-16T03:40:11;100791.53;;;18.34;70.60
28289;BME280;15558;50.874;6.964;2022-10-16T03:42:37;100794.69;;;18.32;70.67
28289;BME280;15558;50.874;6.964;2022-10-16T03:45:03;100794.38;;;18.34;71.10
28289;BME280;15558;50.874;6.964;2022-10-16T03:47:29;100801.44;;;18.28;71.36
28289;BME280;15558;50.874;6.964;2022-10-16T03:49:54;100801.09;;;18.29;71.32
28289;BME280;15558;50.874;6.964;2022-10-16T03:52:20;100812.31;;;18.26;71.94
28289;BME280;15558;50.874;6.964;2022-10-16T03:54:46;100821.81;;;18.30;71.74
28289;BME280;15558;50.874;6.964;2022-10-16T03:57:12;100829.16;;;18.31;71.43
28289;BME280;15558;50.874;6.964;2022-10-16T03:59:37;100841.22;;;18.28;71.65
28289;BME280;15558;50.874;6.964;2022-10-16T04:02:03;100851.44;;;18.29;71.61
28289;BME280;15558;50.874;6.964;2022-10-16T04:04:29;100842.91;;;18.29;71.45
28289;BME280;15558;50.874;6.964;2022-10-16T04:06:54;100845.19;;;18.35;71.50
28289;BME280;15558;50.874;6.964;2022-10-16T04:09:20;100844.31;;;18.35;71.34
28289;BME280;15558;50.874;6.964;2022-10-16T04:11:46;100841.31;;;18.52;70.18
28289;BME280;15558;50.874;6.964;2022-10-16T04:14:11;100834.22;;;18.46;70.36
28289;BME280;15558;50.874;6.964;2022-10-16T04:16:37;100825.84;;;18.61;69.89
28289;BME280;15558;50.874;6.964;2022-10-16T04:19:03;100828.16;;;18.47;70.57
28289;BME280;15558;50.874;6.964;2022-10-16T04:21:28;100832.69;;;18.48;70.61
28289;BME280;15558;50.874;6.964;2022-10-16T04:23:54;100843.97;;;18.57;70.14
28289;BME280;15558;50.874;6.964;2022-10-16T04:26:20;100851.28;;;18.46;71.01
28289;BME280;15558;50.874;6.964;2022-10-16T04:28:46;100850.56;;;18.49;70.96
28289;BME280;15558;50.874;6.964;2022-10-16T04:31:11;100847.47;;;18.42;71.73
28289;BME280;15558;50.874;6.964;2022-10-16T04:33:37;100844.31;;;18.35;71.81
28289;BME280;15558;50.874;6.964;2022-10-16T04:36:03;100848.38;;;18.34;72.15
28289;BME280;15558;50.874;6.964;2022-10-16T04:38:29;100861.22;;;18.52;71.33
28289;BME280;15558;50.874;6.964;2022-10-16T04:40:55;100852.19;;;18.38;71.96
28289;BME280;15558;50.874;6.964;2022-10-16T04:43:21;100854.53;;;18.36;72.24
28289;BME280;15558;50.874;6.964;2022-10-16T04:45:46;100856.88;;;18.34;72.15
28289;BME280;15558;50.874;6.964;2022-10-16T04:48:12;100852.03;;;18.34;72.33
28289;BME280;15558;50.874;6.964;2022-10-16T04:50:38;100856.88;;;18.34;72.19
28289;BME280;15558;50.874;6.964;2022-10-16T04:53:04;100858.06;;;18.33;72.17
28289;BME280;15558;50.874;6.964;2022-10-16T04:55:30;100859.03;;;18.37;72.09
28289;BME280;15558;50.874;6.964;2022-10-16T04:57:56;100860.06;;;18.32;71.79
28289;BME280;15558;50.874;6.964;2022-10-16T05:00:21;100860.16;;;18.24;72.20
28289;BME280;15558;50.874;6.964;2022-10-16T05:02:49;100873.59;;;18.35;71.63
28289;BME280;15558;50.874;6.964;2022-10-16T05:05:15;100875.41;;;18.40;71.26
28289;BME280;15558;50.874;6.964;2022-10-16T05:07:40;100878.81;;;18.33;71.79
28289;BME280;15558;50.874;6.964;2022-10-16T05:10:06;100879.97;;;18.32;71.73
28289;BME280;15558;50.874;6.964;2022-10-16T05:12:32;100881.28;;;18.35;71.68
28289;BME280;15558;50.874;6.964;2022-10-16T05:14:58;100872.81;;;18.47;71.14
28289;BME280;15558;50.874;6.964;2022-10-16T05:17:24;100883.56;;;18.41;71.99
28289;BME280;15558;50.874;6.964;2022-10-16T05:19:50;100882.25;;;18.39;71.66
28289;BME280;15558;50.874;6.964;2022-10-16T05:22:16;100883.50;;;18.50;71.39
28289;BME280;15558;50.874;6.964;2022-10-16T05:24:42;100894.81;;;18.38;71.92
28289;BME280;15558;50.874;6.964;2022-10-16T05:27:07;100887.09;;;18.38;71.99
28289;BME280;15558;50.874;6.964;2022-10-16T05:29:33;100881.13;;;18.52;71.51
28289;BME280;15558;50.874;6.964;2022-10-16T05:31:59;100875.50;;;18.43;71.89
28289;BME280;15558;50.874;6.964;2022-10-16T05:34:24;100888.63;;;18.56;71.26
28289;BME280;15558;50.874;6.964;2022-10-16T05:36:50;100894.59;;;18.43;71.80
28289;BME280;15558;50.874;6.964;2022-10-16T05:39:16;100884.53;;;18.45;71.76
28289;BME280;15558;50.874;6.964;2022-10-16T05:41:42;100899.84;;;18.32;72.24
28289;BME280;15558;50.874;6.964;2022-10-16T05:44:08;100894.09;;;18.41;71.79
28289;BME280;15558;50.874;6.964;2022-10-16T05:46:33;100881.16;;;18.31;72.35
28289;BME280;15558;50.874;6.964;2022-10-16T05:48:59;100881.97;;;18.32;72.32
28289;BME280;15558;50.874;6.964;2022-10-16T05:51:25;100895.06;;;18.45;71.50
28289;BME280;15558;50.874;6.964;2022-10-16T05:53:51;100893.19;;;18.28;72.05
28289;BME280;15558;50.874;6.964;2022-10-16T05:56:17;100920.25;;;18.34;72.12
28289;BME280;15558;50.874;6.964;2022-10-16T05:58:43;100917.47;;;18.26;72.17
28289;BME280;15558;50.874;6.964;2022-10-16T06:01:11;100928.56;;;18.39;71.89
28289;BME280;15558;50.874;6.964;2022-10-16T06:03:37;100935.75;;;18.37;71.63
28289;BME280;15558;50.874;6.964;2022-10-16T06:08:34;100935.44;;;18.38;71.63
28289;BME280;15558;50.874;6.964;2022-10-16T06:11:04;100943.47;;;18.36;71.87
28289;BME280;15558;50.874;6.964;2022-10-16T06:13:31;100948.00;;;18.37;71.83
28289;BME280;15558;50.874;6.964;2022-10-16T06:15:57;100951.72;;;18.29;72.28
28289;BME280;15558;50.874;6.964;2022-10-16T06:18:24;100957.25;;;18.26;72.19
28289;BME280;15558;50.874;6.964;2022-10-16T06:20:49;100961.84;;;18.10;72.61
28289;BME280;15558;50.874;6.964;2022-10-16T06:23:15;100959.03;;;18.10;72.81
28289;BME280;15558;50.874;6.964;2022-10-16T06:25:41;100953.22;;;18.07;72.88
28289;BME280;15558;50.874;6.964;2022-10-16T06:28:06;100953.72;;;18.00;73.01
28289;BME280;15558;50.874;6.964;2022-10-16T06:30:34;100959.72;;;18.07;73.16
28289;BME280;15558;50.874;6.964;2022-10-16T06:32:59;100960.91;;;18.06;73.36
28289;BME280;15558;50.874;6.964;2022-10-16T06:35:25;100963.22;;;18.13;73.09
28289;BME280;15558;50.874;6.964;2022-10-16T06:37:52;100975.41;;;18.13;73.54
28289;BME280;15558;50.874;6.964;2022-10-16T06:40:18;100996.00;;;18.30;72.89
28289;BME280;15558;50.874;6.964;2022-10-16T06:42:43;100988.72;;;18.41;72.33
28289;BME280;15558;50.874;6.964;2022-10-16T06:45:09;100991.00;;;18.27;72.96
28289;BME280;15558;50.874;6.964;2022-10-16T06:47:35;100989.22;;;18.23;73.54
28289;BME280;15558;50.874;6.964;2022-10-16T06:50:01;100999.66;;;18.31;73.44
28289;BME280;15558;50.874;6.964;2022-10-16T06:52:27;101001.34;;;18.32;73.31
28289;BME280;15558;50.874;6.964;2022-10-16T06:54:53;101000.53;;;18.31;73.49
28289;BME280;15558;50.874;6.964;2022-10-16T06:57:19;101002.47;;;18.39;73.24
28289;BME280;15558;50.874;6.964;2022-10-16T06:59:44;101007.06;;;18.52;73.46
28289;BME280;15558;50.874;6.964;2022-10-16T07:02:10;101016.63;;;18.48;73.14
28289;BME280;15558;50.874;6.964;2022-10-16T07:04:36;101028.28;;;18.55;72.84
28289;BME280;15558;50.874;6.964;2022-10-16T07:07:02;101015.09;;;18.50;73.44
28289;BME280;15558;50.874;6.964;2022-10-16T07:09:28;101022.25;;;18.56;73.60
28289;BME280;15558;50.874;6.964;2022-10-16T07:11:53;101018.78;;;18.71;72.77
28289;BME280;15558;50.874;6.964;2022-10-16T07:14:19;101022.03;;;18.61;73.61
28289;BME280;15558;50.874;6.964;2022-10-16T07:16:45;101044.63;;;18.58;74.22
28289;BME280;15558;50.874;6.964;2022-10-16T07:19:12;101031.88;;;18.63;74.46
28289;BME280;15558;50.874;6.964;2022-10-16T07:21:40;101042.72;;;18.70;73.97
28289;BME280;15558;50.874;6.964;2022-10-16T07:24:07;101053.69;;;18.80;73.69
28289;BME280;15558;50.874;6.964;2022-10-16T07:26:34;101065.97;;;18.92;72.73
28289;BME280;15558;50.874;6.964;2022-10-16T07:29:00;101059.69;;;18.78;72.87
28289;BME280;15558;50.874;6.964;2022-10-16T07:31:26;101063.25;;;18.75;73.29
28289;BME280;15558;50.874;6.964;2022-10-16T07:33:52;101067.13;;;18.71;74.25
28289;BME280;15558;50.874;6.964;2022-10-16T07:36:18;101065.94;;;18.72;74.43
28289;BME280;15558;50.874;6.964;2022-10-16T07:38:44;101070.25;;;18.78;74.67
28289;BME280;15558;50.874;6.964;2022-10-16T07:41:11;101079.91;;;18.85;74.63
28289;BME280;15558;50.874;6.964;2022-10-16T07:43:37;101079.22;;;18.88;74.66
28289;BME280;15558;50.874;6.964;2022-10-16T07:46:03;101076.66;;;18.95;74.75
28289;BME280;15558;50.874;6.964;2022-10-16T07:48:30;101080.31;;;19.04;74.44
28289;BME280;15558;50.874;6.964;2022-10-16T07:50:56;101088.44;;;19.14;74.16
28289;BME280;15558;50.874;6.964;2022-10-16T07:53:22;101097.97;;;19.30;73.16
28289;BME280;15558;50.874;6.964;2022-10-16T07:55:48;101093.75;;;19.35;72.49
28289;BME280;15558;50.874;6.964;2022-10-16T07:58:14;101100.47;;;19.31;72.79
28289;BME280;15558;50.874;6.964;2022-10-16T08:00:39;101107.34;;;19.30;72.59
28289;BME280;15558;50.874;6.964;2022-10-16T08:03:05;101104.31;;;19.67;72.62
28289;BME280;15558;50.874;6.964;2022-10-16T08:05:31;101109.78;;;19.72;71.40
28289;BME280;15558;50.874;6.964;2022-10-16T08:07:58;101108.59;;;19.73;71.42
28289;BME280;15558;50.874;6.964;2022-10-16T08:10:24;101113.66;;;19.88;71.16
28289;BME280;15558;50.874;6.964;2022-10-16T08:12:50;101114.69;;;20.15;70.35
28289;BME280;15558;50.874;6.964;2022-10-16T08:15:16;101119.59;;;20.50;69.24
28289;BME280;15558;50.874;6.964;2022-10-16T08:17:42;101127.34;;;20.74;68.24
28289;BME280;15558;50.874;6.964;2022-10-16T08:20:08;101123.41;;;20.90;65.99
28289;BME280;15558;50.874;6.964;2022-10-16T08:22:34;101125.88;;;21.15;65.22
28289;BME280;15558;50.874;6.964;2022-10-16T08:25:00;101128.09;;;21.21;65.86
28289;BME280;15558;50.874;6.964;2022-10-16T08:27:30;101132.31;;;21.51;65.60
28289;BME280;15558;50.874;6.964;2022-10-16T08:29:56;101130.88;;;21.84;64.40
28289;BME280;15558;50.874;6.964;2022-10-16T08:32:22;101135.06;;;22.02;64.13
28289;BME280;15558;50.874;6.964;2022-10-16T08:34:47;101145.94;;;22.23;64.20
28289;BME280;15558;50.874;6.964;2022-10-16T08:37:13;101140.53;;;22.49;61.86
28289;BME280;15558;50.874;6.964;2022-10-16T08:39:40;101143.47;;;22.68;61.45
28289;BME280;15558;50.874;6.964;2022-10-16T08:48:05;101157.22;;;22.93;58.33
28289;BME280;15558;50.874;6.964;2022-10-16T08:50:31;101159.44;;;22.99;57.99
28289;BME280;15558;50.874;6.964;2022-10-16T08:52:58;101161.06;;;23.16;56.80
28289;BME280;15558;50.874;6.964;2022-10-16T08:55:31;101159.50;;;23.18;56.34
28289;BME280;15558;50.874;6.964;2022-10-16T08:57:59;101161.31;;;23.26;56.29
28289;BME280;15558;50.874;6.964;2022-10-16T09:00:26;101161.72;;;23.43;55.85
28289;BME280;15558;50.874;6.964;2022-10-16T09:11:35;101166.38;;;23.85;54.93
28289;BME280;15558;50.874;6.964;2022-10-16T09:13:43;101155.69;;;23.82;54.16
28289;BME280;15558;50.874;6.964;2022-10-16T09:18:53;101154.28;;;24.14;54.26
28289;BME280;15558;50.874;6.964;2022-10-16T09:23:46;101167.88;;;24.35;52.89
28289;BME280;15558;50.874;6.964;2022-10-16T09:26:13;101176.09;;;24.37;52.29
28289;BME280;15558;50.874;6.964;2022-10-16T09:28:40;101162.53;;;24.34;51.37
28289;BME280;15558;50.874;6.964;2022-10-16T09:31:07;101162.63;;;24.41;52.33
28289;BME280;15558;50.874;6.964;2022-10-16T09:33:36;101166.03;;;24.46;53.66
28289;BME280;15558;50.874;6.964;2022-10-16T09:36:04;101157.97;;;24.33;52.62
28289;BME280;15558;50.874;6.964;2022-10-16T09:38:32;101161.38;;;24.20;52.17
28289;BME280;15558;50.874;6.964;2022-10-16T09:40:58;101168.34;;;24.37;51.07
28289;BME280;15558;50.874;6.964;2022-10-16T09:43:25;101161.13;;;24.47;51.46
28289;BME280;15558;50.874;6.964;2022-10-16T09:46:06;101158.00;;;24.55;50.70
28289;BME280;15558;50.874;6.964;2022-10-16T09:51:14;101168.34;;;24.60;49.61
28289;BME280;15558;50.874;6.964;2022-10-16T09:53:43;101168.22;;;24.75;48.14
28289;BME280;15558;50.874;6.964;2022-10-16T09:56:10;101175.69;;;24.79;48.96
28289;BME280;15558;50.874;6.964;2022-10-16T09:58:41;101176.75;;;24.71;49.77
28289;BME280;15558;50.874;6.964;2022-10-16T10:01:12;101185.00;;;24.73;50.46
28289;BME280;15558;50.874;6.964;2022-10-16T10:03:39;101178.47;;;24.76;49.34
28289;BME280;15558;50.874;6.964;2022-10-16T10:06:27;101175.31;;;24.81;49.38
28289;BME280;15558;50.874;6.964;2022-10-16T10:08:55;101165.34;;;24.97;48.06
28289;BME280;15558;50.874;6.964;2022-10-16T10:14:09;101161.63;;;24.97;47.86
28289;BME280;15558;50.874;6.964;2022-10-16T10:16:39;101161.38;;;25.05;46.58
28289;BME280;15558;50.874;6.964;2022-10-16T10:19:09;101155.97;;;25.00;46.42
28289;BME280;15558;50.874;6.964;2022-10-16T10:21:38;101152.75;;;25.05;46.75
28289;BME280;15558;50.874;6.964;2022-10-16T10:24:04;101155.00;;;24.93;47.06
28289;BME280;15558;50.874;6.964;2022-10-16T10:26:30;101145.69;;;24.77;46.34
28289;BME280;15558;50.874;6.964;2022-10-16T10:36:45;101166.91;;;24.28;47.43
28289;BME280;15558;50.874;6.964;2022-10-16T10:39:15;101171.50;;;24.14;47.44
28289;BME280;15558;50.874;6.964;2022-10-16T10:41:51;101174.59;;;24.05;48.11
28289;BME280;15558;50.874;6.964;2022-10-16T10:47:08;101164.38;;;24.45;47.54
28289;BME280;15558;50.874;6.964;2022-10-16T10:57:25;101165.06;;;25.05;44.60
28289;BME280;15558;50.874;6.964;2022-10-16T11:07:41;101177.19;;;25.43;43.85
28289;BME280;15558;50.874;6.964;2022-10-16T11:10:12;101175.41;;;25.36;42.04
28289;BME280;15558;50.874;6.964;2022-10-16T11:12:40;101171.47;;;25.47;43.82
28289;BME280;15558;50.874;6.964;2022-10-16T11:15:24;101183.75;;;25.44;42.60
28289;BME280;15558;50.874;6.964;2022-10-16T11:17:55;101185.06;;;25.75;42.48
28289;BME280;15558;50.874;6.964;2022-10-16T11:20:25;101182.19;;;25.72;42.77
28289;BME280;15558;50.874;6.964;2022-10-16T11:22:55;101181.66;;;25.67;42.21
28289;BME280;15558;50.874;6.964;2022-10-16T11:25:29;101176.41;;;25.72;42.84
28289;BME280;15558;50.874;6.964;2022-10-16T11:30:22;101182.31;;;25.82;40.84
28289;BME280;15558;50.874;6.964;2022-10-16T11:32:52;101176.72;;;25.64;41.03
28289;BME280;15558;50.874;6.964;2022-10-16T11:35:21;101175.03;;;25.63;43.14
28289;BME280;15558;50.874;6.964;2022-10-16T11:37:48;101179.91;;;25.59;41.89
28289;BME280;15558;50.874;6.964;2022-10-16T11:40:31;101181.03;;;25.54;42.44
28289;BME280;15558;50.874;6.964;2022-10-16T11:43:04;101180.94;;;25.47;42.24
28289;BME280;15558;50.874;6.964;2022-10-16T11:48:23;101181.59;;;25.60;41.87
28289;BME280;15558;50.874;6.964;2022-10-16T11:50:52;101191.94;;;25.68;41.98
28289;BME280;15558;50.874;6.964;2022-10-16T11:55:45;101193.88;;;25.09;43.53
28289;BME280;15558;50.874;6.964;2022-10-16T11:58:27;101199.06;;;25.00;43.65
28289;BME280;15558;50.874;6.964;2022-10-16T12:00:58;101194.56;;;24.58;43.38
28289;BME280;15558;50.874;6.964;2022-10-16T12:03:28;101196.78;;;24.68;43.74
28289;BME280;15558;50.874;6.964;2022-10-16T12:05:58;101184.47;;;24.45;44.69
28289;BME280;15558;50.874;6.964;2022-10-16T12:08:27;101189.41;;;24.26;45.28
28289;BME280;15558;50.874;6.964;2022-10-16T12:10:53;101190.63;;;24.25;47.61
28289;BME280;15558;50.874;6.964;2022-10-16T12:13:27;101202.56;;;24.08;48.02
28289;BME280;15558;50.874;6.964;2022-10-16T12:16:03;101195.72;;;24.16;46.48
28289;BME280;15558;50.874;6.964;2022-10-16T12:18:29;101196.13;;;24.15;47.55
28289;BME280;15558;50.874;6.964;2022-10-16T12:20:58;101190.38;;;24.15;47.54
28289;BME280;15558;50.874;6.964;2022-10-16T12:23:29;101193.31;;;24.18;46.40
28289;BME280;15558;50.874;6.964;2022-10-16T12:25:56;101191.81;;;24.05;46.32
28289;BME280;15558;50.874;6.964;2022-10-16T12:28:26;101187.53;;;24.15;46.35
28289;BME280;15558;50.874;6.964;2022-10-16T12:30:54;101186.44;;;24.41;45.98
28289;BME280;15558;50.874;6.964;2022-10-16T12:35:49;101169.75;;;24.69;45.54
28289;BME280;15558;50.874;6.964;2022-10-16T12:38:25;101170.03;;;24.64;44.07
28289;BME280;15558;50.874;6.964;2022-10-16T12:40:58;101166.31;;;24.60;44.21
28289;BME280;15558;50.874;6.964;2022-10-16T12:48:34;101168.53;;;24.70;44.29
28289;BME280;15558;50.874;6.964;2022-10-16T12:53:35;101166.31;;;24.60;45.41
28289;BME280;15558;50.874;6.964;2022-10-16T12:56:04;101171.59;;;24.58;44.80
28289;BME280;15558;50.874;6.964;2022-10-16T12:58:41;101168.28;;;24.56;45.69
28289;BME280;15558;50.874;6.964;2022-10-16T13:09:11;101174.72;;;24.50;44.94
28289;BME280;15558;50.874;6.964;2022-10-16T13:12:00;101160.66;;;24.45;44.76
28289;BME280;15558;50.874;6.964;2022-10-16T13:14:39;101165.91;;;24.39;45.07
28289;BME280;15558;50.874;6.964;2022-10-16T13:30:38;101188.28;;;24.31;45.12
28289;BME280;15558;50.874;6.964;2022-10-16T13:33:15;101183.69;;;24.26;45.83
28289;BME280;15558;50.874;6.964;2022-10-16T13:35:47;101191.53;;;24.29;46.77
28289;BME280;15558;50.874;6.964;2022-10-16T13:38:14;101195.28;;;24.33;44.87
28289;BME280;15558;50.874;6.964;2022-10-16T13:43:16;101193.63;;;24.32;45.94
28289;BME280;15558;50.874;6.964;2022-10-16T13:45:52;101187.56;;;24.18;47.49
28289;BME280;15558;50.874;6.964;2022-10-16T13:48:19;101186.84;;;24.21;47.04
28289;BME280;15558;50.874;6.964;2022-10-16T13:50:45;101186.75;;;24.18;47.17
28289;BME280;15558;50.874;6.964;2022-10-16T13:53:14;101171.38;;;24.26;47.63
28289;BME280;15558;50.874;6.964;2022-10-16T13:55:40;101177.59;;;24.31;47.43
28289;BME280;15558;50.874;6.964;2022-10-16T13:58:12;101187.53;;;24.33;46.70
28289;BME280;15558;50.874;6.964;2022-10-16T14:00:38;101177.78;;;24.38;47.02
28289;BME280;15558;50.874;6.964;2022-10-16T14:03:05;101172.53;;;24.43;47.30
28289;BME280;15558;50.874;6.964;2022-10-16T14:05:32;101176.38;;;24.51;47.53
28289;BME280;15558;50.874;6.964;2022-10-16T14:07:58;101184.91;;;24.47;48.91
28289;BME280;15558;50.874;6.964;2022-10-16T14:10:25;101182.47;;;24.49;49.07
28289;BME280;15558;50.874;6.964;2022-10-16T14:13:36;101194.47;;;24.32;48.42
28289;BME280;15558;50.874;6.964;2022-10-16T14:15:45;101193.25;;;24.33;48.23
28289;BME280;15558;50.874;6.964;2022-10-16T14:18:19;101183.44;;;24.34;48.52
28289;BME280;15558;50.874;6.964;2022-10-16T14:20:46;101178.00;;;24.30;49.29
28289;BME280;15558;50.874;6.964;2022-10-16T14:25:47;101166.13;;;24.31;50.55
28289;BME280;15558;50.874;6.964;2022-10-16T14:30:48;101159.91;;;24.26;49.93
28289;BME280;15558;50.874;6.964;2022-10-16T14:33:24;101154.59;;;24.28;49.11
28289;BME280;15558;50.874;6.964;2022-10-16T14:35:59;101162.44;;;24.12;49.76
28289;BME280;15558;50.874;6.964;2022-10-16T14:38:25;101167.28;;;24.08;49.76
28289;BME280;15558;50.874;6.964;2022-10-16T14:40:51;101168.94;;;24.09;49.86
28289;BME280;15558;50.874;6.964;2022-10-16T14:43:20;101171.38;;;24.07;50.19
28289;BME280;15558;50.874;6.964;2022-10-16T14:45:50;101182.03;;;24.06;49.47
28289;BME280;15558;50.874;6.964;2022-10-16T14:48:17;101173.47;;;24.10;50.37
28289;BME280;15558;50.874;6.964;2022-10-16T14:50:43;101177.34;;;23.98;50.23
28289;BME280;15558;50.874;6.964;2022-10-16T14:53:13;101177.09;;;24.07;50.40
28289;BME280;15558;50.874;6.964;2022-10-16T14:55:39;101174.97;;;24.04;50.63